首页
METAR-TAF:

METAR-TAF

机场 :

Pond Inlet, 努那武特, 加拿大

纬度: 72-42N, 经度: 077-58W, 海拔: 59米

当前天气观测

该预报发布于29分钟前的00:00 UTC
风速16节,风向南转南东
温度 -33°C
湿度 74%
气压 1002 hPa
能見度: 14.5公里
多云层高于6500英尺

METAR: CYIO 190000Z AUTO 15016KT 9SM BKN065 M33/M36 A2958 RMK SLP029

时间: 20:29 (00:29 UTC)

预报

该预报发布于5小时和50分钟前的18:39 UTC
预报有效从18日的 19点(UTC)到 19日的 07点(UTC)
风速5节,风向
能見度: 10公里
少量云层高于4000英尺
短暂存在
从 18日的 23点(UTC)到 19日的 07点(UTC)
能見度: 6.4公里
冰针, 轻雾

TAF: CYIO 181839Z 1819/1907 18005KT P6SM FEW040 TEMPO 1823/1907 4SM IC BR RMK NXT FCST BY 190100Z

超过4000个机场的气象观测和天气预报(METAR&TAF报告)。

可查询的气象台以黄色和红色小点在地图上表示。

将鼠标移到小点上方,可查看气象台名称。

然后点击查看天气观测和预报。

如需切换地图:点击带黑十字的绿色按钮放大地图;点击带横线的绿色按钮缩小地图;或者点击绿色箭头查看邻近地区的地图。


METAR-TAF: